GPM weather

Grand Prairie Municipal Airport
Grand Prairie, Texas, United States

Public forecast

Using degrees Fahrenheit for public forecast. Weather courtesy of forecast.io.

METAR (pilot weather report)

Retrieved 2019/09/18 18:50 UTC (20 minutes ago):

KGPM 181850Z 04005KT 10SM SKC 32/19 A2995

TAF (pilot weather forecast)

Closest forecast is Arlington Municipal Airport, 3.2 nm (5.9 km) SW. Retrieved 2019/09/18 18:27 UTC (43 minutes ago):

TAF KGKY 181723Z 1818/1918 09008KT P6SM BKN035 FM182300 08009KT P6SM SCT040 FM190800 07005KT P6SM BKN012